createdAt,value
2023-02-03T00:01:40.973Z,2.85
2023-02-03T00:06:44.240Z,3.30
2023-02-03T00:11:48.167Z,3.28
2023-02-03T00:16:50.907Z,3.83
2023-02-03T00:21:53.392Z,3.60
2023-02-03T00:26:57.187Z,3.93
2023-02-03T00:31:59.820Z,3.80
2023-02-03T00:37:02.904Z,4.03
2023-02-03T00:42:07.612Z,4.33
2023-02-03T00:47:10.200Z,3.83
2023-02-03T00:52:12.720Z,4.78
2023-02-03T00:57:16.552Z,3.57
2023-02-03T01:02:19.139Z,3.72
2023-02-03T01:07:21.629Z,3.72
2023-02-03T01:12:25.409Z,2.83
2023-02-03T01:17:27.942Z,2.57
2023-02-03T01:22:31.176Z,2.58
2023-02-03T01:27:35.052Z,2.67
2023-02-03T01:32:37.523Z,2.47
2023-02-03T01:37:40.013Z,3.00
2023-02-03T01:42:43.854Z,2.50
2023-02-03T01:47:51.192Z,2.40
2023-02-03T01:52:58.475Z,2.40
2023-02-03T01:58:07.613Z,1.85
2023-02-03T02:03:10.842Z,2.00
2023-02-03T02:08:14.904Z,1.80
2023-02-03T02:13:20.496Z,1.85
2023-02-03T02:18:37.571Z,2.13
2023-02-03T02:24:08.978Z,1.77
2023-02-03T02:29:51.048Z,1.70
2023-02-03T02:35:02.794Z,1.77
2023-02-03T02:40:16.754Z,1.73
2023-02-03T02:45:26.363Z,1.60
2023-02-03T02:50:35.701Z,1.80
2023-02-03T02:55:41.186Z,2.10
2023-02-03T03:00:44.859Z,2.17
2023-02-03T03:05:53.413Z,2.40
2023-02-03T03:10:57.967Z,2.30
2023-02-03T03:16:02.546Z,2.30
2023-02-03T03:21:09.035Z,2.55
2023-02-03T03:26:17.399Z,3.00
2023-02-03T03:31:20.989Z,2.90
2023-02-03T03:36:30.198Z,3.03
2023-02-03T03:41:42.284Z,3.13
2023-02-03T03:46:51.139Z,4.20
2023-02-03T03:51:59.894Z,4.10
2023-02-03T03:57:07.695Z,4.40
2023-02-03T04:02:10.940Z,5.05
2023-02-03T04:07:15.616Z,5.57
2023-02-03T04:12:24.339Z,5.63
2023-02-03T04:17:26.864Z,6.13
2023-02-03T04:22:30.666Z,6.33
2023-02-03T04:27:33.514Z,6.03
2023-02-03T04:32:36.419Z,6.05
2023-02-03T04:37:40.319Z,7.03
2023-02-03T04:42:42.885Z,7.03
2023-02-03T04:47:45.379Z,6.88
2023-02-03T04:52:49.217Z,6.45
2023-02-03T04:57:56.316Z,5.37
2023-02-03T05:02:58.837Z,6.30
2023-02-03T05:08:02.749Z,6.45
2023-02-03T05:13:05.249Z,6.20
2023-02-03T05:18:08.016Z,5.65
2023-02-03T05:23:11.825Z,5.72
2023-02-03T05:28:14.457Z,4.70
2023-02-03T05:33:17.405Z,5.50
2023-02-03T05:38:21.320Z,5.30
2023-02-03T05:43:23.833Z,4.65
2023-02-03T05:48:26.333Z,4.60
2023-02-03T05:53:30.271Z,4.47
2023-02-03T05:58:32.833Z,4.70
2023-02-03T06:03:35.397Z,3.17
2023-02-03T06:08:39.318Z,3.20
2023-02-03T06:13:41.802Z,3.30
2023-02-03T06:18:44.285Z,2.50
2023-02-03T06:23:48.297Z,1.97
2023-02-03T06:28:50.814Z,1.95
2023-02-03T06:33:53.357Z,1.02
2023-02-03T06:38:58.288Z,1.47
2023-02-03T06:44:00.789Z,1.40
2023-02-03T06:49:03.282Z,1.30
2023-02-03T06:54:07.957Z,1.40
2023-02-03T06:59:10.966Z,1.17
2023-02-03T07:04:13.452Z,1.13
2023-02-03T07:09:17.325Z,1.20
2023-02-03T07:14:20.018Z,1.20
2023-02-03T07:19:22.549Z,1.40
2023-02-03T07:24:26.399Z,1.00
2023-02-03T07:29:29.236Z,1.13
2023-02-03T07:34:31.761Z,1.27
2023-02-03T07:39:35.668Z,1.50
2023-02-03T07:44:38.197Z,1.30
2023-02-03T07:49:40.730Z,1.10
2023-02-03T07:54:44.583Z,1.38
2023-02-03T07:59:47.076Z,1.07
2023-02-03T08:04:49.665Z,1.00
2023-02-03T08:09:53.529Z,0.90
2023-02-03T08:14:56.103Z,1.02
2023-02-03T08:19:58.581Z,1.10
2023-02-03T08:25:02.424Z,1.10
2023-02-03T08:30:06.193Z,1.27
2023-02-03T08:35:09.714Z,1.13
2023-02-03T08:40:14.047Z,1.13
2023-02-03T08:45:16.539Z,1.25
2023-02-03T08:50:19.736Z,1.50
2023-02-03T08:55:24.544Z,1.60
2023-02-03T09:00:28.004Z,1.75
2023-02-03T09:05:31.304Z,1.65
2023-02-03T09:10:35.131Z,2.03
2023-02-03T09:15:38.065Z,2.03
2023-02-03T09:20:40.581Z,1.60
2023-02-03T09:25:47.237Z,2.30
2023-02-03T09:30:51.110Z,2.45
2023-02-03T09:35:53.969Z,2.58
2023-02-03T09:41:11.305Z,2.27
2023-02-03T09:46:20.999Z,3.30
2023-02-03T09:51:26.112Z,3.08
2023-02-03T09:56:33.297Z,3.17
2023-02-03T10:01:42.660Z,3.13
2023-02-03T10:06:47.277Z,3.47
2023-02-03T10:12:09.511Z,3.60
2023-02-03T10:17:30.325Z,3.10
2023-02-03T10:22:38.896Z,3.67
2023-02-03T10:27:44.807Z,4.07
2023-02-03T10:32:50.257Z,3.87
2023-02-03T10:37:58.423Z,3.37
2023-02-03T10:43:19.957Z,3.60
2023-02-03T10:48:23.515Z,2.97
2023-02-03T10:53:28.068Z,3.77
2023-02-03T10:58:34.054Z,4.13
2023-02-03T11:03:36.886Z,2.97
2023-02-03T11:08:41.450Z,2.83
2023-02-03T11:13:45.289Z,2.75
2023-02-03T11:18:54.135Z,1.83
2023-02-03T11:24:03.033Z,2.43
2023-02-03T11:29:08.355Z,2.17
2023-02-03T11:34:19.570Z,1.50
2023-02-03T11:39:27.133Z,2.08
2023-02-03T11:44:33.531Z,2.30
2023-02-03T11:50:11.506Z,2.50
2023-02-03T11:55:26.814Z,2.22
2023-02-03T12:00:40.038Z,3.93
2023-02-03T12:06:01.640Z,3.13
2023-02-03T12:11:12.670Z,3.25
2023-02-03T12:16:31.767Z,3.97
2023-02-03T12:21:44.229Z,4.73
2023-02-03T12:26:53.123Z,3.20
2023-02-03T12:32:06.469Z,3.13
2023-02-03T12:37:15.227Z,4.00
2023-02-03T12:42:22.168Z,3.40
2023-02-03T12:47:33.092Z,3.10
2023-02-03T12:52:40.440Z,3.00
2023-02-03T12:57:49.171Z,2.67
2023-02-03T13:03:07.988Z,2.75
2023-02-03T13:08:17.748Z,4.17
2023-02-03T13:13:30.089Z,3.37
2023-02-03T13:18:38.062Z,3.80
2023-02-03T13:23:44.631Z,3.28
2023-02-03T13:29:04.028Z,3.23
2023-02-03T13:34:53.665Z,3.20
2023-02-03T13:40:17.939Z,2.70
2023-02-03T13:45:30.641Z,2.87
2023-02-03T13:50:36.458Z,2.88
2023-02-03T13:55:43.036Z,3.38
2023-02-03T14:01:31.684Z,3.20
2023-02-03T14:07:13.322Z,3.23
2023-02-03T14:12:34.099Z,3.22
2023-02-03T14:18:06.982Z,2.72
2023-02-03T14:23:17.603Z,3.43
2023-02-03T14:28:41.927Z,4.03
2023-02-03T14:33:55.306Z,2.65
2023-02-03T14:39:03.395Z,3.00
2023-02-03T14:44:18.749Z,3.42
2023-02-03T14:49:36.941Z,4.18
2023-02-03T14:54:56.829Z,3.17
2023-02-03T15:00:05.912Z,4.30
2023-02-03T15:05:36.881Z,4.47
2023-02-03T15:10:44.882Z,4.05
2023-02-03T15:15:56.146Z,3.00
2023-02-03T15:21:03.276Z,4.50
2023-02-03T15:26:20.644Z,3.72
2023-02-03T15:31:32.260Z,4.00
2023-02-03T15:36:43.963Z,4.32
2023-02-03T15:41:50.776Z,4.63
2023-02-03T15:47:01.825Z,4.60
2023-02-03T15:52:15.025Z,4.00
2023-02-03T15:57:23.250Z,3.70
2023-02-03T16:02:35.021Z,3.30
2023-02-03T16:07:43.107Z,4.33
2023-02-03T16:12:46.264Z,3.85
2023-02-03T16:17:57.473Z,2.97
2023-02-03T16:23:07.627Z,3.13
2023-02-03T16:28:35.902Z,3.50
2023-02-03T16:33:58.323Z,3.25
2023-02-03T16:39:22.635Z,3.17
2023-02-03T16:44:43.029Z,4.10
2023-02-03T16:50:06.036Z,3.05
2023-02-03T16:55:10.862Z,4.80
2023-02-03T17:00:15.368Z,2.97
2023-02-03T17:05:22.873Z,3.00
2023-02-03T17:10:27.934Z,2.42
2023-02-03T17:15:31.495Z,2.37
2023-02-03T17:20:37.037Z,2.58
2023-02-03T17:25:41.292Z,2.50
2023-02-03T17:30:46.099Z,2.93
2023-02-03T17:36:01.630Z,2.30
2023-02-03T17:57:16.154Z,2.55
2023-02-03T18:02:19.054Z,2.28
2023-02-03T18:07:25.979Z,2.10
2023-02-03T18:12:30.393Z,2.35
2023-02-03T18:17:33.921Z,1.45
2023-02-03T18:22:39.594Z,1.37
2023-02-03T18:27:49.245Z,1.30
2023-02-03T18:32:54.792Z,1.08
2023-02-03T18:38:02.932Z,1.40
2023-02-03T18:43:10.466Z,1.53
2023-02-03T18:48:13.450Z,1.17
2023-02-03T18:53:21.501Z,0.70
2023-02-03T18:58:25.522Z,1.00
2023-02-03T19:03:28.535Z,0.75
2023-02-03T19:08:34.626Z,0.70
2023-02-03T19:13:38.905Z,1.00
2023-02-03T19:18:44.349Z,1.73
2023-02-03T19:23:49.202Z,0.90
2023-02-03T19:29:11.030Z,0.70
2023-02-03T19:34:15.958Z,0.73
2023-02-03T19:39:21.863Z,0.68
2023-02-03T19:44:24.433Z,0.70
2023-02-03T19:49:28.605Z,0.90
2023-02-03T19:54:33.145Z,1.13
2023-02-03T19:59:35.891Z,0.80
2023-02-03T20:04:55.024Z,0.93
2023-02-03T20:10:19.823Z,0.87
2023-02-03T20:15:31.631Z,0.93
2023-02-03T20:26:14.025Z,1.40
2023-02-03T20:31:24.627Z,1.40
2023-02-03T20:36:33.331Z,1.50
2023-02-03T20:41:43.155Z,1.50
2023-02-03T20:47:00.729Z,1.25
2023-02-03T21:08:39.638Z,1.13
2023-02-03T21:14:13.282Z,1.73
2023-02-03T21:19:35.119Z,1.70
2023-02-03T21:36:08.029Z,2.17
2023-02-03T21:52:32.782Z,2.07
2023-02-03T21:57:50.900Z,2.03
2023-02-03T22:08:25.754Z,2.17
2023-02-03T22:13:45.434Z,2.03
2023-02-03T22:18:50.886Z,1.45
2023-02-03T22:24:06.352Z,1.30
2023-02-03T22:29:11.196Z,1.57
2023-02-03T22:34:41.648Z,1.10
2023-02-03T22:40:04.726Z,1.40
2023-02-03T22:45:13.161Z,1.00
2023-02-03T22:50:35.021Z,0.93
2023-02-03T23:01:04.306Z,1.10
2023-02-03T23:11:30.164Z,1.13
2023-02-03T23:22:16.732Z,0.97
2023-02-03T23:27:19.933Z,1.17
2023-02-03T23:32:30.223Z,1.00
2023-02-03T23:37:35.270Z,1.00
2023-02-03T23:42:38.494Z,1.00
2023-02-03T23:48:17.363Z,0.75
2023-02-03T23:53:19.845Z,0.90
2023-02-03T23:58:22.312Z,0.97
